General Aviation Weather

Text Reports

Enter one or more of the following location identifiers separated by a space:

Zip Code, Four-Character ICAO or Three-Character IATA airport codes.

METAR - Aviation Routine Weather Report
K04V - Saguache, Colorado
Updated at 12:53 AM GMT on December 18, 2014 (5:53 PM MST):
METAR K04V 180053Z AUTO 00000KT 10SM SCT013 M02/M04 A2997 RMK AO2
TAF - Terminal Area Forecast
K04V - Saguache, Colorado
Updated at 12:53 AM GMT on December 18, 2014 (5:53 PM MST):
No TAF is currently available for this location.
Decoded:
No decoded TAF is available.
PIREP - Pilot Weather Report
K04V - Saguache, Colorado
Updated at 12:53 AM GMT on December 18, 2014 (5:53 PM MST):
No PIREP is currently available for this location.
AIRMET - Airmens Meteorological Information
K04V - Saguache, Colorado
Updated at 12:53 AM GMT on December 18, 2014 (5:53 PM MST):
No AIRMET is currently available for this location.
SIGMET - Significant Meteorological Information
K04V - Saguache, Colorado
Updated at 12:53 AM GMT on December 18, 2014 (5:53 PM MST):
No SIGMET is currently available for this location.
NOTAM - Notice to Airmen
K04V - Saguache, Colorado
Updated at 12:53 AM GMT on December 18, 2014 (5:53 PM MST):
No NOTAM is currently available for this location.
Forecast Area
K04V - Saguache, Colorado
Updated at 12:53 AM GMT on December 18, 2014 (5:53 PM MST):
No NOTAM is currently available for this location.
Aviation Weather Maps